createdAt,value
2018-01-29T00:00:52.841Z,61.60
2018-01-29T00:03:21.108Z,62.00
2018-01-29T00:05:49.347Z,61.80
2018-01-29T00:08:17.610Z,62.00
2018-01-29T00:10:45.874Z,62.00
2018-01-29T00:13:14.164Z,61.90
2018-01-29T00:15:42.472Z,62.00
2018-01-29T00:18:10.690Z,62.10
2018-01-29T00:20:39.222Z,62.20
2018-01-29T00:23:07.809Z,62.30
2018-01-29T00:25:36.830Z,62.30
2018-01-29T00:28:05.433Z,62.00
2018-01-29T00:30:33.661Z,62.10
2018-01-29T00:33:01.899Z,62.00
2018-01-29T00:35:30.169Z,62.10
2018-01-29T00:37:58.427Z,62.50
2018-01-29T00:40:26.662Z,62.60
2018-01-29T00:42:54.897Z,62.70
2018-01-29T00:45:23.152Z,62.50
2018-01-29T00:47:52.225Z,62.60
2018-01-29T00:50:21.126Z,62.70
2018-01-29T00:52:49.414Z,62.50
2018-01-29T00:55:17.639Z,62.80
2018-01-29T00:57:47.424Z,62.60
2018-01-29T01:00:15.764Z,62.70
2018-01-29T01:02:44.037Z,62.90
2018-01-29T01:05:13.065Z,63.30
2018-01-29T01:07:41.305Z,63.10
2018-01-29T01:10:09.566Z,63.70
2018-01-29T01:12:37.838Z,63.00
2018-01-29T01:15:06.300Z,62.70
2018-01-29T01:17:34.533Z,62.90
2018-01-29T01:20:02.799Z,62.60
2018-01-29T01:22:31.556Z,62.90
2018-01-29T01:24:59.781Z,62.70
2018-01-29T01:27:28.009Z,62.40
2018-01-29T01:29:56.257Z,62.40
2018-01-29T01:32:24.576Z,62.60
2018-01-29T01:34:53.604Z,62.30
2018-01-29T01:37:21.893Z,62.50
2018-01-29T01:39:50.132Z,62.40
2018-01-29T01:42:18.413Z,62.40
2018-01-29T01:44:46.665Z,62.30
2018-01-29T01:47:14.921Z,62.60
2018-01-29T01:49:43.160Z,62.50
2018-01-29T01:52:11.415Z,62.30
2018-01-29T01:54:39.676Z,62.40
2018-01-29T01:57:08.244Z,62.60
2018-01-29T01:59:36.459Z,62.30
2018-01-29T02:02:05.453Z,62.80
2018-01-29T02:04:33.696Z,62.70
2018-01-29T02:07:02.777Z,62.50
2018-01-29T02:09:31.017Z,62.70
2018-01-29T02:11:59.248Z,62.30
2018-01-29T02:14:28.256Z,62.50
2018-01-29T02:16:56.569Z,62.60
2018-01-29T02:19:24.824Z,62.30
2018-01-29T02:21:53.074Z,62.50
2018-01-29T02:24:21.314Z,62.30
2018-01-29T02:26:49.581Z,62.60
2018-01-29T02:29:17.821Z,62.70
2018-01-29T02:31:46.143Z,62.60
2018-01-29T02:34:14.387Z,62.80
2018-01-29T02:36:42.633Z,62.70
2018-01-29T02:39:10.870Z,62.70
2018-01-29T02:41:39.892Z,62.60
2018-01-29T02:44:09.029Z,62.40
2018-01-29T02:46:37.410Z,62.30
2018-01-29T02:49:05.668Z,62.30
2018-01-29T02:51:35.725Z,62.40
2018-01-29T02:54:03.995Z,62.70
2018-01-29T02:56:32.431Z,62.60
2018-01-29T02:59:01.442Z,62.70
2018-01-29T03:01:30.041Z,62.50
2018-01-29T03:03:58.280Z,62.40
2018-01-29T03:06:27.307Z,62.70
2018-01-29T03:08:55.555Z,62.70
2018-01-29T03:11:23.787Z,62.80
2018-01-29T03:13:52.081Z,62.80
2018-01-29T03:16:20.309Z,62.70
2018-01-29T03:18:48.564Z,63.00
2018-01-29T03:21:16.821Z,63.00
2018-01-29T03:23:45.822Z,62.60
2018-01-29T03:26:14.261Z,62.70
2018-01-29T03:28:42.486Z,62.60
2018-01-29T03:31:10.739Z,62.40
2018-01-29T03:33:39.898Z,62.50
2018-01-29T03:36:08.136Z,62.60
2018-01-29T03:38:36.405Z,62.50
2018-01-29T03:41:05.537Z,62.40
2018-01-29T03:43:33.804Z,62.50
2018-01-29T03:46:02.057Z,62.50
2018-01-29T03:48:30.359Z,62.30
2018-01-29T03:50:58.630Z,62.70
2018-01-29T03:53:26.862Z,62.30
2018-01-29T03:55:55.138Z,62.50
2018-01-29T03:58:23.352Z,62.30
2018-01-29T04:00:53.199Z,62.00
2018-01-29T04:03:21.438Z,62.30
2018-01-29T04:05:49.689Z,61.90
2018-01-29T04:08:17.919Z,62.20
2018-01-29T04:10:46.171Z,61.90
2018-01-29T04:13:14.453Z,61.60
2018-01-29T04:15:42.712Z,62.10
2018-01-29T04:18:10.969Z,61.80
2018-01-29T04:20:39.229Z,61.70
2018-01-29T04:23:07.509Z,61.60
2018-01-29T04:25:35.724Z,61.40
2018-01-29T04:28:03.976Z,61.50
2018-01-29T04:30:32.982Z,61.10
2018-01-29T04:33:01.218Z,61.10
2018-01-29T04:35:29.541Z,60.90
2018-01-29T04:37:57.797Z,60.80
2018-01-29T04:40:26.041Z,60.60
2018-01-29T04:42:55.063Z,60.20
2018-01-29T04:45:24.073Z,60.20
2018-01-29T04:47:52.351Z,60.40
2018-01-29T04:50:21.335Z,60.40
2018-01-29T04:52:50.549Z,60.50
2018-01-29T04:55:18.792Z,60.10
2018-01-29T04:57:47.035Z,60.80
2018-01-29T05:00:15.380Z,60.30
2018-01-29T05:02:43.626Z,60.00
2018-01-29T05:05:11.993Z,60.00
2018-01-29T05:07:40.224Z,59.50
2018-01-29T05:10:08.484Z,59.60
2018-01-29T05:12:36.766Z,59.50
2018-01-29T05:15:05.006Z,59.70
2018-01-29T05:17:33.299Z,59.40
2018-01-29T05:20:02.270Z,59.40
2018-01-29T05:22:31.302Z,59.40
2018-01-29T05:24:59.542Z,59.40
2018-01-29T05:27:27.781Z,59.40
2018-01-29T05:29:56.087Z,59.30
2018-01-29T05:32:24.329Z,59.10
2018-01-29T05:34:56.621Z,58.80
2018-01-29T05:37:29.680Z,59.30
2018-01-29T05:39:57.928Z,58.90
2018-01-29T05:42:26.383Z,58.80
2018-01-29T05:44:54.613Z,58.80
2018-01-29T05:47:23.039Z,58.70
2018-01-29T05:49:51.248Z,58.70
2018-01-29T05:52:19.539Z,58.70
2018-01-29T05:54:47.892Z,58.80
2018-01-29T05:57:16.289Z,58.20
2018-01-29T05:59:44.595Z,58.50
2018-01-29T06:02:12.849Z,58.60
2018-01-29T06:04:41.097Z,58.40
2018-01-29T06:07:10.174Z,58.20
2018-01-29T06:09:38.408Z,58.20
2018-01-29T06:12:06.649Z,58.10
2018-01-29T06:14:34.909Z,58.40
2018-01-29T06:17:03.913Z,58.20
2018-01-29T06:19:32.181Z,58.00
2018-01-29T06:22:01.213Z,57.80
2018-01-29T06:24:29.447Z,58.00
2018-01-29T06:26:57.695Z,57.90
2018-01-29T06:29:25.921Z,57.90
2018-01-29T06:31:54.345Z,57.90
2018-01-29T06:34:22.574Z,58.10
2018-01-29T06:36:50.806Z,58.00
2018-01-29T06:39:19.050Z,58.20
2018-01-29T06:41:47.291Z,58.20
2018-01-29T06:44:15.552Z,58.00
2018-01-29T06:46:44.548Z,58.10
2018-01-29T06:49:12.784Z,58.20
2018-01-29T06:51:41.052Z,58.00
2018-01-29T06:54:09.305Z,58.10
2018-01-29T06:56:38.388Z,58.20
2018-01-29T06:59:07.375Z,58.10
2018-01-29T07:01:35.620Z,58.10
2018-01-29T07:04:03.861Z,57.90
2018-01-29T07:06:32.106Z,57.80
2018-01-29T07:09:01.120Z,58.00
2018-01-29T07:11:29.409Z,57.90
2018-01-29T07:13:57.648Z,57.70
2018-01-29T07:16:25.917Z,58.10
2018-01-29T07:18:54.145Z,57.90
2018-01-29T07:21:22.429Z,57.70
2018-01-29T07:23:50.685Z,57.50
2018-01-29T07:26:18.925Z,57.50
2018-01-29T07:28:47.952Z,57.30
2018-01-29T07:31:16.189Z,57.30
2018-01-29T07:33:44.443Z,57.10
2018-01-29T07:36:13.466Z,57.30
2018-01-29T07:38:42.456Z,57.40
2018-01-29T07:41:10.709Z,57.10
2018-01-29T07:43:38.945Z,57.40
2018-01-29T07:46:07.205Z,57.30
2018-01-29T07:48:35.442Z,57.40
2018-01-29T07:51:03.684Z,57.10
2018-01-29T07:53:32.063Z,57.40
2018-01-29T07:56:00.303Z,57.00
2018-01-29T07:58:28.561Z,57.00
2018-01-29T08:00:57.585Z,57.20
2018-01-29T08:03:25.902Z,57.30
2018-01-29T08:05:54.934Z,57.00
2018-01-29T08:08:23.184Z,57.20
2018-01-29T08:10:51.438Z,57.30
2018-01-29T08:13:19.686Z,57.50
2018-01-29T08:15:47.954Z,57.20
2018-01-29T08:18:16.270Z,57.30
2018-01-29T08:20:44.501Z,57.30
2018-01-29T08:23:12.815Z,57.40
2018-01-29T08:25:41.113Z,57.60
2018-01-29T08:28:09.348Z,57.70
2018-01-29T08:30:37.601Z,57.70
2018-01-29T08:33:06.974Z,57.60
2018-01-29T08:35:35.204Z,57.70
2018-01-29T08:38:03.502Z,57.60
2018-01-29T08:40:32.550Z,58.60
2018-01-29T08:43:00.774Z,58.00
2018-01-29T08:45:29.071Z,57.80
2018-01-29T08:47:57.310Z,57.70
2018-01-29T08:50:25.593Z,57.50
2018-01-29T08:52:53.832Z,57.60
2018-01-29T08:55:22.104Z,57.20
2018-01-29T08:57:51.940Z,57.10
2018-01-29T09:00:20.197Z,57.50
2018-01-29T09:02:48.446Z,57.10
2018-01-29T09:05:17.494Z,56.90
2018-01-29T09:07:45.767Z,56.90
2018-01-29T09:10:14.009Z,56.80
2018-01-29T09:12:43.018Z,57.20
2018-01-29T09:15:11.263Z,57.20
2018-01-29T09:17:39.542Z,57.20
2018-01-29T09:20:07.788Z,57.20
2018-01-29T09:22:36.086Z,57.20
2018-01-29T09:25:04.331Z,57.20
2018-01-29T09:27:32.589Z,57.10
2018-01-29T09:30:00.842Z,57.00
2018-01-29T09:32:29.134Z,56.90
2018-01-29T09:34:57.478Z,57.20
2018-01-29T09:37:25.875Z,57.20
2018-01-29T09:39:54.105Z,57.50
2018-01-29T09:42:22.406Z,57.10
2018-01-29T09:44:50.886Z,57.00
2018-01-29T09:47:19.313Z,57.10
2018-01-29T09:49:47.854Z,57.10
2018-01-29T09:52:16.214Z,57.10
2018-01-29T09:54:44.466Z,57.10
2018-01-29T09:57:12.731Z,57.20
2018-01-29T09:59:41.006Z,57.20
2018-01-29T10:02:09.269Z,57.20
2018-01-29T10:04:37.525Z,56.90
2018-01-29T10:07:06.610Z,57.00
2018-01-29T10:09:35.638Z,56.80
2018-01-29T10:12:03.872Z,56.70
2018-01-29T10:14:32.280Z,57.10
2018-01-29T10:17:01.505Z,56.90
2018-01-29T10:19:29.754Z,57.10
2018-01-29T10:21:58.034Z,57.50
2018-01-29T10:24:26.489Z,57.40
2018-01-29T10:26:54.909Z,57.00
2018-01-29T10:29:23.797Z,56.90
2018-01-29T10:31:52.752Z,56.80
2018-01-29T10:34:21.786Z,56.40
2018-01-29T10:36:50.051Z,57.10
2018-01-29T10:39:18.387Z,56.70
2018-01-29T10:41:46.659Z,56.70
2018-01-29T10:44:14.904Z,56.90
2018-01-29T10:46:43.170Z,56.90
2018-01-29T10:49:11.405Z,57.10
2018-01-29T10:51:39.817Z,56.70
2018-01-29T10:54:08.089Z,57.10
2018-01-29T10:56:36.451Z,56.60
2018-01-29T10:59:05.501Z,56.80
2018-01-29T11:01:33.820Z,56.90
2018-01-29T11:04:02.857Z,56.80
2018-01-29T11:06:31.129Z,57.10
2018-01-29T11:08:59.345Z,57.10
2018-01-29T11:11:27.616Z,57.00
2018-01-29T11:13:55.841Z,57.60
2018-01-29T11:16:24.115Z,56.90
2018-01-29T11:18:52.350Z,56.70
2018-01-29T11:21:20.619Z,56.50
2018-01-29T11:23:48.855Z,56.70
2018-01-29T11:26:17.126Z,56.50
2018-01-29T11:28:45.361Z,56.20
2018-01-29T11:31:13.620Z,56.30
2018-01-29T11:33:41.897Z,56.70
2018-01-29T11:36:10.188Z,56.60
2018-01-29T11:38:38.437Z,56.40
2018-01-29T11:41:06.658Z,56.30
2018-01-29T11:43:34.913Z,56.30
2018-01-29T11:46:03.920Z,56.40
2018-01-29T11:48:32.185Z,56.50
2018-01-29T11:51:00.482Z,56.20
2018-01-29T11:53:28.722Z,56.20
2018-01-29T11:55:56.973Z,57.00
2018-01-29T11:58:25.197Z,56.10
2018-01-29T12:00:54.214Z,56.10
2018-01-29T12:03:22.525Z,56.00
2018-01-29T12:05:50.796Z,55.90
2018-01-29T12:08:19.065Z,55.90
2018-01-29T12:10:47.290Z,55.80
2018-01-29T12:13:15.552Z,55.90
2018-01-29T12:15:43.797Z,55.80
2018-01-29T12:18:12.040Z,55.60
2018-01-29T12:20:40.266Z,55.70
2018-01-29T12:23:08.550Z,55.70
2018-01-29T12:25:36.758Z,55.80
2018-01-29T12:28:05.014Z,55.50
2018-01-29T12:30:33.261Z,55.40
2018-01-29T12:33:01.480Z,55.30
2018-01-29T12:35:30.630Z,55.10
2018-01-29T12:37:58.932Z,55.10
2018-01-29T12:40:27.141Z,55.10
2018-01-29T12:42:55.397Z,55.20
2018-01-29T12:45:24.575Z,55.10
2018-01-29T12:47:52.839Z,55.90
2018-01-29T12:50:21.100Z,55.10
2018-01-29T12:52:49.341Z,55.20
2018-01-29T12:55:17.593Z,55.60
2018-01-29T12:57:47.725Z,55.70
2018-01-29T13:00:16.725Z,55.60
2018-01-29T13:02:45.078Z,55.60
2018-01-29T13:05:13.372Z,55.60
2018-01-29T13:07:42.360Z,55.60
2018-01-29T13:10:10.624Z,55.50
2018-01-29T13:12:38.868Z,55.60
2018-01-29T13:15:07.157Z,55.40
2018-01-29T13:17:35.402Z,55.20
2018-01-29T13:20:03.651Z,55.10
2018-01-29T13:22:31.956Z,55.20
2018-01-29T13:25:00.239Z,55.30
2018-01-29T13:27:28.485Z,55.00
2018-01-29T13:29:56.725Z,54.60
2018-01-29T13:32:24.984Z,54.70
2018-01-29T13:34:53.309Z,55.10
2018-01-29T13:37:23.218Z,55.10
2018-01-29T13:39:52.232Z,55.30
2018-01-29T13:42:21.294Z,55.30
2018-01-29T13:44:49.572Z,55.10
2018-01-29T13:47:17.882Z,54.90
2018-01-29T13:49:46.120Z,55.00
2018-01-29T13:52:15.126Z,55.00
2018-01-29T13:54:44.317Z,55.00
2018-01-29T13:57:13.516Z,55.10
2018-01-29T13:59:41.737Z,55.00
2018-01-29T14:02:10.003Z,55.00
2018-01-29T14:04:38.246Z,55.10
2018-01-29T14:07:07.249Z,55.80
2018-01-29T14:09:35.557Z,55.60
2018-01-29T14:12:03.819Z,55.80
2018-01-29T14:14:32.815Z,55.70
2018-01-29T14:17:01.055Z,55.90
2018-01-29T14:19:29.482Z,55.80
2018-01-29T14:21:57.895Z,56.00
2018-01-29T14:24:26.126Z,55.80
2018-01-29T14:26:54.392Z,55.80
2018-01-29T14:29:22.719Z,55.60
2018-01-29T14:31:51.016Z,55.40
2018-01-29T14:34:19.249Z,55.60
2018-01-29T14:36:47.485Z,55.60
2018-01-29T14:39:15.745Z,55.60
2018-01-29T14:41:43.992Z,55.80
2018-01-29T14:44:12.298Z,55.60
2018-01-29T14:46:40.808Z,55.40
2018-01-29T14:49:09.703Z,55.50
2018-01-29T14:51:37.963Z,55.20
2018-01-29T14:54:06.192Z,55.40
2018-01-29T14:56:34.487Z,55.30
2018-01-29T14:59:02.735Z,55.30
2018-01-29T15:01:30.952Z,55.10
2018-01-29T15:03:59.232Z,55.40
2018-01-29T15:06:27.490Z,55.60
2018-01-29T15:08:55.759Z,55.70
2018-01-29T15:11:24.054Z,56.00
2018-01-29T15:13:52.290Z,56.20
2018-01-29T15:16:20.585Z,56.00
2018-01-29T15:18:48.860Z,56.40
2018-01-29T15:21:17.086Z,56.30
2018-01-29T15:23:45.489Z,56.50
2018-01-29T15:26:13.772Z,56.40
2018-01-29T15:28:42.824Z,56.50
2018-01-29T15:31:11.996Z,56.10
2018-01-29T15:33:40.209Z,56.30
2018-01-29T15:36:08.471Z,56.10
2018-01-29T15:38:36.726Z,56.10
2018-01-29T15:41:04.957Z,55.90
2018-01-29T15:43:33.200Z,55.60
2018-01-29T15:46:01.518Z,55.60
2018-01-29T15:48:29.971Z,55.60
2018-01-29T15:50:58.229Z,55.80
2018-01-29T15:53:26.468Z,55.60
2018-01-29T15:55:54.703Z,56.00
2018-01-29T15:58:22.959Z,55.90
2018-01-29T16:00:51.206Z,55.90
2018-01-29T16:03:20.254Z,56.30
2018-01-29T16:05:48.700Z,56.30
2018-01-29T16:08:17.740Z,56.60
2018-01-29T16:10:45.986Z,56.50
2018-01-29T16:13:14.394Z,56.60
2018-01-29T16:15:42.629Z,57.00
2018-01-29T16:18:11.624Z,57.90
2018-01-29T16:20:39.886Z,57.70
2018-01-29T16:23:08.157Z,57.60
2018-01-29T16:25:36.581Z,57.60
2018-01-29T16:28:04.835Z,58.10
2018-01-29T16:30:33.903Z,59.10
2018-01-29T16:33:02.113Z,58.90
2018-01-29T16:35:30.398Z,59.00
2018-01-29T16:37:58.642Z,59.30
2018-01-29T16:40:26.876Z,59.40
2018-01-29T16:42:55.162Z,59.30
2018-01-29T16:45:23.433Z,59.50
2018-01-29T16:47:51.681Z,59.70
2018-01-29T16:50:19.957Z,59.90
2018-01-29T16:52:48.226Z,60.30
2018-01-29T16:55:16.887Z,60.10
2018-01-29T16:57:45.138Z,60.60
2018-01-29T17:00:18.077Z,60.30
2018-01-29T17:02:46.716Z,60.70
2018-01-29T17:05:16.467Z,61.30
2018-01-29T17:07:44.724Z,61.00
2018-01-29T17:10:13.771Z,61.10
2018-01-29T17:12:42.019Z,61.10
2018-01-29T17:15:10.280Z,60.80
2018-01-29T17:17:38.525Z,60.80
2018-01-29T17:20:06.811Z,61.20
2018-01-29T17:22:35.859Z,61.30
2018-01-29T17:25:04.145Z,61.10
2018-01-29T17:27:32.700Z,61.10
2018-01-29T17:30:00.938Z,61.40
2018-01-29T17:32:29.152Z,61.30
2018-01-29T17:34:57.555Z,61.30
2018-01-29T17:37:26.170Z,61.40
2018-01-29T17:39:54.405Z,61.60
2018-01-29T17:42:22.653Z,61.30
2018-01-29T17:44:50.898Z,61.20
2018-01-29T17:47:19.157Z,61.50
2018-01-29T17:49:47.386Z,61.20
2018-01-29T17:52:15.632Z,61.10
2018-01-29T17:54:43.883Z,61.30
2018-01-29T17:57:12.186Z,61.40
2018-01-29T17:59:40.456Z,62.00
2018-01-29T18:02:08.700Z,61.70
2018-01-29T18:04:36.942Z,61.80
2018-01-29T18:07:05.201Z,61.90
2018-01-29T18:09:34.206Z,62.10
2018-01-29T18:12:02.465Z,61.90
2018-01-29T18:14:31.648Z,62.30
2018-01-29T18:16:59.865Z,62.10
2018-01-29T18:19:28.146Z,62.20
2018-01-29T18:21:56.386Z,62.40
2018-01-29T18:24:25.405Z,62.50
2018-01-29T18:26:54.278Z,62.80
2018-01-29T18:29:23.275Z,63.20
2018-01-29T18:31:51.518Z,62.90
2018-01-29T18:34:20.120Z,63.00
2018-01-29T18:36:48.343Z,62.90
2018-01-29T18:39:16.581Z,63.30
2018-01-29T18:41:44.882Z,62.90
2018-01-29T18:44:13.205Z,63.10
2018-01-29T18:46:41.503Z,62.80
2018-01-29T18:49:11.773Z,63.20
2018-01-29T18:51:40.028Z,63.20
2018-01-29T18:54:09.173Z,63.50
2018-01-29T18:56:37.405Z,63.50
2018-01-29T18:59:06.392Z,63.90
2018-01-29T19:01:34.656Z,64.00
2018-01-29T19:04:02.893Z,63.80
2018-01-29T19:06:31.184Z,64.10
2018-01-29T19:08:59.436Z,63.80
2018-01-29T19:11:27.689Z,64.50
2018-01-29T19:13:55.963Z,64.90
2018-01-29T19:16:24.238Z,63.20
2018-01-29T19:18:52.570Z,63.20
2018-01-29T19:21:20.852Z,62.70
2018-01-29T19:23:49.165Z,63.30
2018-01-29T19:26:17.761Z,63.00
2018-01-29T19:28:46.004Z,63.10
2018-01-29T19:31:15.115Z,63.20
2018-01-29T19:33:45.490Z,63.20
2018-01-29T19:36:13.768Z,62.90
2018-01-29T19:38:42.054Z,63.10
2018-01-29T19:41:10.314Z,63.80
2018-01-29T19:43:39.354Z,63.00
2018-01-29T19:46:08.349Z,63.00
2018-01-29T19:48:36.609Z,63.30
2018-01-29T19:51:04.877Z,63.10
2018-01-29T19:53:33.107Z,62.00
2018-01-29T19:56:01.364Z,62.50
2018-01-29T19:58:29.601Z,62.80
2018-01-29T20:00:57.894Z,61.30
2018-01-29T20:03:26.105Z,61.80
2018-01-29T20:05:54.348Z,61.80
2018-01-29T20:08:23.421Z,62.00
2018-01-29T20:10:52.439Z,61.40
2018-01-29T20:13:21.493Z,61.40
2018-01-29T20:15:49.763Z,61.30
2018-01-29T20:18:18.040Z,60.60
2018-01-29T20:20:46.324Z,60.40
2018-01-29T20:23:14.567Z,60.50
2018-01-29T20:25:42.863Z,60.30
2018-01-29T20:28:11.117Z,61.20
2018-01-29T20:30:39.407Z,60.00
2018-01-29T20:33:07.720Z,60.00
2018-01-29T20:35:35.954Z,61.00
2018-01-29T20:38:04.198Z,60.30
2018-01-29T20:40:32.509Z,59.90
2018-01-29T20:43:00.733Z,59.60
2018-01-29T20:45:29.745Z,59.70
2018-01-29T20:47:58.920Z,59.60
2018-01-29T20:50:27.125Z,59.70
2018-01-29T20:52:55.529Z,58.60
2018-01-29T20:55:23.818Z,58.80
2018-01-29T20:57:52.056Z,58.80
2018-01-29T21:00:20.296Z,58.10
2018-01-29T21:02:49.338Z,58.00
2018-01-29T21:05:17.648Z,57.80
2018-01-29T21:07:45.916Z,57.90
2018-01-29T21:10:14.221Z,58.00
2018-01-29T21:12:42.497Z,57.70
2018-01-29T21:15:11.501Z,57.50
2018-01-29T21:17:40.515Z,58.50
2018-01-29T21:20:08.785Z,57.80
2018-01-29T21:22:37.059Z,57.70
2018-01-29T21:25:05.286Z,57.60
2018-01-29T21:27:33.554Z,57.70
2018-01-29T21:30:01.831Z,58.60
2018-01-29T21:32:30.052Z,58.40
2018-01-29T21:34:59.053Z,58.10
2018-01-29T21:37:27.345Z,58.20
2018-01-29T21:39:55.626Z,58.20
2018-01-29T21:42:23.868Z,58.50
2018-01-29T21:44:52.154Z,58.30
2018-01-29T21:47:20.712Z,58.40
2018-01-29T21:49:48.957Z,58.10
2018-01-29T21:52:17.210Z,58.10
2018-01-29T21:54:45.450Z,58.20
2018-01-29T21:57:13.731Z,58.30
2018-01-29T21:59:41.962Z,58.10
2018-01-29T22:02:10.238Z,57.90
2018-01-29T22:04:38.470Z,57.80
2018-01-29T22:07:07.501Z,58.40
2018-01-29T22:09:35.783Z,58.20
2018-01-29T22:12:03.985Z,57.20
2018-01-29T22:14:32.240Z,57.20
2018-01-29T22:17:00.638Z,57.10
2018-01-29T22:19:29.584Z,56.00
2018-01-29T22:21:57.834Z,56.80
2018-01-29T22:24:26.867Z,57.40
2018-01-29T22:26:55.097Z,56.60
2018-01-29T22:29:23.431Z,57.50
2018-01-29T22:31:52.005Z,56.70
2018-01-29T22:34:20.334Z,57.50
2018-01-29T22:36:48.584Z,57.00
2018-01-29T22:39:18.280Z,57.50
2018-01-29T22:41:46.513Z,57.30
2018-01-29T22:44:15.565Z,57.80
2018-01-29T22:46:43.840Z,57.60
2018-01-29T22:49:12.061Z,57.90
2018-01-29T22:51:40.332Z,57.60
2018-01-29T22:54:09.325Z,58.50
2018-01-29T22:56:38.370Z,57.60
2018-01-29T22:59:06.776Z,57.60
2018-01-29T23:01:35.009Z,57.50
2018-01-29T23:04:03.261Z,57.50
2018-01-29T23:06:31.518Z,57.50
2018-01-29T23:09:00.700Z,57.10
2018-01-29T23:11:28.902Z,57.10
2018-01-29T23:13:57.913Z,57.40
2018-01-29T23:16:26.146Z,55.90
2018-01-29T23:18:54.653Z,56.80
2018-01-29T23:21:22.901Z,56.90
2018-01-29T23:23:51.162Z,56.40
2018-01-29T23:26:19.397Z,56.50
2018-01-29T23:28:47.681Z,56.60
2018-01-29T23:31:15.931Z,56.70
2018-01-29T23:33:44.173Z,57.00
2018-01-29T23:36:12.461Z,56.80
2018-01-29T23:38:40.732Z,56.70
2018-01-29T23:41:08.991Z,55.90
2018-01-29T23:43:38.776Z,56.50
2018-01-29T23:46:07.176Z,56.50
2018-01-29T23:48:35.375Z,56.90
2018-01-29T23:51:04.246Z,57.00
2018-01-29T23:53:33.805Z,56.90
2018-01-29T23:56:02.107Z,56.60
2018-01-29T23:58:32.089Z,57.20
